Arbúcies





Hora UTC 04:30
Temperatura 11.5 ºC
Humedad 95.5 %
Presión 1028.0 hPa
Pluja 0.0 mm
Velocidad viento 3.7 km/h
Dirección viento SW
Radiación solar 0.0 W/m²

Datos diarios 2021-10-19



Hora UTC (invierno +1h; verano +2h)
Temperatura (ºC) Humedad (%) Presión (hPa) Velocidad viento (km/h) Precipitación (mm) Radiación solar (W/m²)
Hora UTC Aire Humedad Presión Vel. Dir. Vel. Max Dir. Intent. máx 5 min. Rad. Sol.
00:05 11.9 94.5 1028.0 4.1 SW 7.1 SSW 0.0 0.0
00:10 11.9 94.5 1028.0 6.1 SSW 8.8 SSW 0.0 0.0
00:15 12.0 94.9 1028.0 8.3 SSW 11.3 SW 0.0 0.0
00:20 12.2 94.9 1029.0 6.3 SSW 8.8 S 0.0 0.0
00:25 12.2 94.7 1028.0 6.3 SSW 9.2 S 0.0 0.0
00:30 12.2 94.6 1028.0 6.7 SSW 10.2 SSW 0.0 0.0
00:35 12.1 94.5 1029.0 7.4 SW 10.2 SSW 0.0 0.0
00:40 12.1 94.8 1029.0 7.9 SSW 9.9 SW 0.0 0.0
00:45 12.3 94.9 1029.0 7.0 SSW 10.6 SSW 0.0 0.0
00:50 12.0 94.4 1029.0 5.9 SW 8.5 SW 0.0 0.0
00:55 11.9 94.4 1028.0 3.9 SW 7.8 SSW 0.0 0.0
01:00 11.7 94.5 1028.0 4.6 SSW 7.4 SSW 0.0 0.0
01:05 11.7 94.7 1029.0 6.9 SSW 9.5 SW 0.0 0.0
01:10 11.8 94.9 1028.0 7.0 SW 8.8 SSW 0.0 0.0
01:15 11.8 94.7 1029.0 6.9 SW 9.9 SSW 0.0 0.0
01:20 11.8 94.9 1029.0 6.3 SSW 10.6 SSW 0.0 0.0
01:25 11.7 94.9 1028.0 7.6 SSW 10.9 SSW 0.0 0.0
01:30 11.8 95.0 1028.0 7.7 SSW 10.9 SW 0.0 0.0
01:35 12.1 95.3 1028.0 8.3 SSW 11.6 SSW 0.0 0.0
01:40 12.0 95.0 1028.0 7.6 SSW 10.9 SW 0.0 0.0
01:45 11.9 94.8 1028.0 6.9 SSW 8.5 SW 0.0 0.0
01:50 11.7 94.7 1029.0 7.0 SSW 9.5 SW 0.0 0.0
01:55 11.9 95.3 1028.0 7.4 SSW 12.0 SW 0.0 0.0
02:00 11.8 94.8 1028.0 6.0 SSW 8.1 SW 0.0 0.0
02:05 11.7 95.0 1028.0 6.2 SSW 8.8 SW 0.0 0.0
02:10 11.8 95.1 1028.0 6.8 SSW 8.5 SSW 0.0 0.0
02:15 11.6 94.9 1028.0 6.8 SW 9.2 SW 0.0 0.0
02:20 11.8 95.3 1029.0 6.9 SW 11.6 SW 0.0 0.0
02:25 11.5 94.8 1028.0 5.3 SW 7.4 SW 0.0 0.0
02:30 11.4 94.9 1028.0 6.5 SW 9.9 SW 0.0 0.0
02:35 11.6 95.3 1028.0 6.6 SSW 8.5 SSW 0.0 0.0
02:40 11.9 95.6 1028.0 6.5 SW 9.5 SW 0.0 0.0
02:45 11.9 95.3 1028.0 4.3 SW 6.4 SW 0.0 0.0
02:50 11.7 95.1 1029.0 5.1 SSW 6.7 SSW 0.0 0.0
02:55 11.7 95.2 1028.0 4.9 SSW 9.2 SSW 0.0 0.0
03:00 11.5 95.0 1028.0 1.3 W 3.5 WNW 0.0 0.0
03:05 11.3 95.0 1028.0 4.1 SW 6.7 SW 0.0 0.0
03:10 11.4 95.3 1028.0 5.1 SW 8.8 SSW 0.0 0.0
03:15 11.4 95.3 1028.0 4.5 SW 6.0 SSW 0.0 0.0
03:20 11.4 95.4 1028.0 6.5 SW 9.9 SW 0.0 0.0
03:25 11.5 95.5 1028.0 6.4 SW 8.8 SSW 0.0 0.0
03:30 11.8 95.8 1028.0 6.2 SW 11.3 WSW 0.0 0.0
03:35 12.0 95.7 1028.0 5.1 SW 7.4 SSW 0.0 0.0
03:40 11.9 95.4 1028.0 4.5 SW 7.8 SW 0.0 0.0
03:45 12.0 95.7 1028.0 5.3 SW 10.2 SW 0.0 0.0
03:50 11.9 95.5 1028.0 4.4 SW 6.4 SW 0.0 0.0
03:55 11.6 95.2 1028.0 3.7 SSW 6.0 S 0.0 0.0
04:00 11.8 95.7 1028.0 3.6 SSW 6.4 SSW 0.0 0.0
04:05 11.8 95.5 1028.0 3.8 SW 5.6 SSW 0.0 0.0
04:10 11.7 95.4 1028.0 2.6 SW 4.2 SSW 0.0 0.0
04:15 11.6 95.4 1028.0 3.9 SSW 5.6 SW 0.0 0.0
04:20 11.6 95.5 1028.0 3.9 SW 7.4 SSW 0.0 0.0
04:25 11.5 95.5 1028.0 1.5 SW 3.9 SSW 0.0 0.0
04:30 11.5 95.5 1028.0 3.7 SW 5.6 SW 0.0 0.0
Máxima 12.3 95.8 1029.0 8.3 SSW 12.0 SW 0.0 0.0
Mínima 11.3 94.4 1028.0
Total 0.0